createdAt,value
2022-10-19T00:00:09.878Z,82.96
2022-10-19T00:02:40.171Z,82.86
2022-10-19T00:05:10.606Z,82.69
2022-10-19T00:07:40.926Z,82.72
2022-10-19T00:10:11.759Z,82.02
2022-10-19T00:12:42.074Z,82.24
2022-10-19T00:15:12.664Z,82.32
2022-10-19T00:17:43.270Z,82.31
2022-10-19T00:20:14.157Z,82.78
2022-10-19T00:22:44.634Z,82.17
2022-10-19T00:25:15.053Z,82.33
2022-10-19T00:27:45.531Z,82.16
2022-10-19T00:30:16.109Z,82.77
2022-10-19T00:32:46.474Z,82.78
2022-10-19T00:35:17.104Z,81.84
2022-10-19T00:37:47.459Z,81.96
2022-10-19T00:40:19.413Z,80.26
2022-10-19T00:42:52.857Z,80.20
2022-10-19T00:45:23.253Z,80.68
2022-10-19T00:47:53.639Z,81.55
2022-10-19T00:50:24.158Z,79.87
2022-10-19T00:52:54.531Z,79.88
2022-10-19T00:55:25.650Z,79.77
2022-10-19T00:57:56.742Z,78.55
2022-10-19T01:00:27.423Z,78.89
2022-10-19T01:02:58.891Z,80.15
2022-10-19T01:05:30.738Z,80.05
2022-10-19T01:08:02.087Z,80.02
2022-10-19T01:10:59.916Z,79.47
2022-10-19T01:13:57.309Z,78.98
2022-10-19T01:16:30.770Z,79.97
2022-10-19T01:19:23.653Z,78.80
2022-10-19T01:22:02.942Z,77.38
2022-10-19T01:24:47.827Z,77.95
2022-10-19T01:27:39.120Z,77.58
2022-10-19T01:30:28.695Z,77.82
2022-10-19T01:33:23.490Z,78.08
2022-10-19T01:36:14.630Z,79.79
2022-10-19T01:38:56.831Z,80.31
2022-10-19T01:41:48.066Z,79.91
2022-10-19T01:44:21.770Z,78.48
2022-10-19T01:46:55.377Z,79.23
2022-10-19T01:49:31.638Z,79.47
2022-10-19T01:52:05.099Z,80.20
2022-10-19T01:54:42.473Z,79.47
2022-10-19T01:57:15.623Z,79.56
2022-10-19T01:59:48.043Z,79.88
2022-10-19T02:02:20.672Z,80.45
2022-10-19T02:04:52.425Z,80.73
2022-10-19T02:07:23.710Z,80.68
2022-10-19T02:09:54.290Z,80.25
2022-10-19T02:12:26.919Z,80.45
2022-10-19T02:15:00.561Z,80.13
2022-10-19T02:17:34.027Z,80.01
2022-10-19T02:20:05.569Z,80.45
2022-10-19T02:22:36.468Z,80.24
2022-10-19T02:25:09.231Z,80.23
2022-10-19T02:27:43.851Z,80.27
2022-10-19T02:30:17.312Z,80.78
2022-10-19T02:32:47.684Z,80.85
2022-10-19T02:35:18.264Z,80.52
2022-10-19T02:37:48.675Z,80.06
2022-10-19T02:40:19.202Z,80.41
2022-10-19T02:42:52.598Z,80.64
2022-10-19T02:45:31.893Z,80.79
2022-10-19T02:48:07.956Z,79.94
2022-10-19T02:50:38.496Z,80.88
2022-10-19T02:53:08.814Z,80.87
2022-10-19T02:58:10.905Z,80.77
2022-10-19T03:00:41.316Z,80.36
2022-10-19T03:03:11.797Z,80.70
2022-10-19T03:05:42.181Z,80.57
2022-10-19T03:08:12.551Z,80.74
2022-10-19T03:10:42.885Z,80.79
2022-10-19T03:13:13.371Z,80.59
2022-10-19T03:15:43.866Z,81.27
2022-10-19T03:18:14.262Z,80.55
2022-10-19T03:20:44.673Z,81.19
2022-10-19T03:23:15.043Z,81.27
2022-10-19T03:25:45.573Z,81.10
2022-10-19T03:28:15.951Z,81.58
2022-10-19T03:30:46.359Z,81.60
2022-10-19T03:33:16.757Z,81.40
2022-10-19T03:35:47.122Z,81.76
2022-10-19T03:38:17.610Z,82.33
2022-10-19T03:40:48.410Z,82.38
2022-10-19T03:43:18.735Z,81.50
2022-10-19T03:45:49.165Z,81.65
2022-10-19T03:48:19.597Z,81.64
2022-10-19T03:50:49.973Z,81.68
2022-10-19T03:53:20.271Z,81.98
2022-10-19T03:55:50.772Z,81.99
2022-10-19T03:58:21.177Z,82.25
2022-10-19T04:00:51.640Z,81.84
2022-10-19T04:03:22.143Z,82.17
2022-10-19T04:05:52.923Z,81.78
2022-10-19T04:08:23.456Z,81.28
2022-10-19T04:10:53.877Z,81.40
2022-10-19T04:13:24.457Z,81.24
2022-10-19T04:15:54.945Z,82.16
2022-10-19T04:18:25.915Z,81.81
2022-10-19T04:21:00.707Z,81.20
2022-10-19T04:23:33.998Z,81.46
2022-10-19T04:26:09.161Z,81.64
2022-10-19T04:28:39.591Z,80.54
2022-10-19T04:31:11.438Z,80.17
2022-10-19T04:33:42.633Z,81.05
2022-10-19T04:36:13.983Z,80.54
2022-10-19T04:38:44.384Z,80.88
2022-10-19T04:41:17.451Z,80.54
2022-10-19T04:43:48.598Z,80.46
2022-10-19T04:46:20.539Z,80.78
2022-10-19T04:48:51.017Z,80.70
2022-10-19T04:51:22.291Z,80.89
2022-10-19T04:53:55.654Z,80.65
2022-10-19T04:56:26.916Z,80.79
2022-10-19T04:58:59.663Z,80.51
2022-10-19T05:01:31.716Z,80.30
2022-10-19T05:04:03.240Z,80.37
2022-10-19T05:06:33.637Z,80.32
2022-10-19T05:09:04.180Z,79.96
2022-10-19T05:11:34.697Z,80.26
2022-10-19T05:14:05.093Z,80.41
2022-10-19T05:16:35.423Z,79.68
2022-10-19T05:19:05.839Z,79.60
2022-10-19T05:21:36.218Z,79.10
2022-10-19T05:24:06.613Z,80.36
2022-10-19T05:26:37.011Z,80.06
2022-10-19T05:29:07.339Z,81.20
2022-10-19T05:31:37.672Z,81.76
2022-10-19T05:36:41.084Z,81.65
2022-10-19T05:39:16.896Z,81.54
2022-10-19T05:41:48.375Z,81.91
2022-10-19T05:44:24.051Z,82.10
2022-10-19T05:46:54.528Z,81.96
2022-10-19T05:49:25.181Z,82.54
2022-10-19T05:51:56.498Z,82.72
2022-10-19T05:54:28.518Z,82.45
2022-10-19T05:57:01.058Z,82.31
2022-10-19T05:59:31.748Z,82.10
2022-10-19T06:02:02.393Z,81.85
2022-10-19T06:04:33.772Z,82.38
2022-10-19T06:07:04.176Z,81.86
2022-10-19T06:09:36.721Z,82.36
2022-10-19T06:12:07.014Z,81.84
2022-10-19T06:14:37.458Z,81.97
2022-10-19T06:17:07.834Z,82.23
2022-10-19T06:19:38.714Z,82.12
2022-10-19T06:22:09.152Z,80.56
2022-10-19T06:24:39.756Z,80.45
2022-10-19T06:27:10.293Z,80.68
2022-10-19T06:29:40.710Z,80.94
2022-10-19T06:32:11.143Z,80.68
2022-10-19T06:34:41.536Z,81.06
2022-10-19T06:37:11.945Z,81.22
2022-10-19T06:39:42.402Z,81.24
2022-10-19T06:42:12.917Z,81.77
2022-10-19T06:44:43.325Z,81.53
2022-10-19T06:47:13.653Z,81.52
2022-10-19T06:49:45.252Z,81.49
2022-10-19T06:52:15.833Z,81.37
2022-10-19T06:54:46.275Z,81.19
2022-10-19T06:57:16.969Z,81.40
2022-10-19T06:59:50.159Z,81.86
2022-10-19T07:02:19.625Z,81.52
2022-10-19T07:04:50.326Z,81.36
2022-10-19T07:07:20.717Z,80.80
2022-10-19T07:09:51.118Z,81.06
2022-10-19T07:12:21.581Z,80.85
2022-10-19T07:14:52.214Z,81.26
2022-10-19T07:17:22.808Z,80.81
2022-10-19T07:19:53.207Z,81.06
2022-10-19T07:22:27.933Z,80.27
2022-10-19T07:24:55.706Z,79.51
2022-10-19T07:27:26.195Z,80.02
2022-10-19T07:29:56.917Z,80.04
2022-10-19T07:32:28.769Z,79.34
2022-10-19T07:34:59.452Z,78.95
2022-10-19T07:37:29.919Z,79.55
2022-10-19T07:40:00.311Z,78.86
2022-10-19T07:42:30.765Z,78.62
2022-10-19T07:45:01.256Z,79.91
2022-10-19T07:47:31.950Z,79.63
2022-10-19T07:50:02.552Z,79.89
2022-10-19T07:52:36.035Z,79.65
2022-10-19T07:55:05.978Z,78.48
2022-10-19T07:57:37.158Z,79.25
2022-10-19T08:00:08.462Z,78.60
2022-10-19T08:02:54.771Z,78.46
2022-10-19T08:05:12.029Z,79.20
2022-10-19T08:07:42.685Z,78.68
2022-10-19T08:10:13.158Z,78.11
2022-10-19T08:12:43.541Z,77.51
2022-10-19T08:15:13.943Z,81.73
2022-10-19T08:17:44.342Z,80.85
2022-10-19T08:20:14.849Z,80.69
2022-10-19T08:22:46.709Z,80.00
2022-10-19T08:25:18.222Z,79.72
2022-10-19T08:27:48.580Z,77.58
2022-10-19T08:30:19.316Z,76.89
2022-10-19T08:32:49.793Z,77.95
2022-10-19T08:35:20.244Z,77.78
2022-10-19T08:37:50.977Z,78.81
2022-10-19T08:40:27.672Z,79.07
2022-10-19T08:43:13.128Z,78.83
2022-10-19T08:45:45.956Z,78.55
2022-10-19T08:48:35.740Z,78.39
2022-10-19T08:51:08.745Z,77.82
2022-10-19T08:53:47.833Z,77.91
2022-10-19T08:56:50.526Z,77.46
2022-10-19T08:59:33.214Z,76.09
2022-10-19T09:02:06.669Z,76.00
2022-10-19T09:04:42.800Z,75.43
2022-10-19T09:07:34.251Z,74.62
2022-10-19T09:10:19.918Z,75.07
2022-10-19T09:13:02.104Z,72.95
2022-10-19T09:15:41.540Z,73.66
2022-10-19T09:18:14.553Z,73.14
2022-10-19T09:20:48.014Z,73.84
2022-10-19T09:23:42.370Z,73.80
2022-10-19T09:26:15.762Z,73.12
2022-10-19T09:28:58.399Z,73.52
2022-10-19T09:31:40.829Z,73.04
2022-10-19T09:34:20.389Z,73.09
2022-10-19T09:36:57.312Z,74.11
2022-10-19T09:39:30.275Z,73.10
2022-10-19T09:42:09.676Z,72.74
2022-10-19T09:44:40.384Z,72.51
2022-10-19T09:47:43.012Z,74.23
2022-10-19T09:50:24.780Z,74.62
2022-10-19T09:53:00.778Z,70.96
2022-10-19T09:55:39.924Z,71.31
2022-10-19T09:58:16.239Z,70.86
2022-10-19T10:00:51.841Z,69.81
2022-10-19T10:03:38.782Z,68.36
2022-10-19T10:06:18.910Z,69.28
2022-10-19T10:08:53.890Z,67.70
2022-10-19T10:11:33.225Z,68.57
2022-10-19T10:14:21.278Z,67.37
2022-10-19T10:19:18.952Z,66.51
2022-10-19T10:21:52.673Z,64.66
2022-10-19T10:24:25.628Z,65.83
2022-10-19T10:27:01.513Z,62.40
2022-10-19T10:29:34.103Z,62.98
2022-10-19T10:32:16.359Z,63.24
2022-10-19T10:34:53.812Z,61.28
2022-10-19T10:37:27.258Z,62.69
2022-10-19T10:40:02.112Z,59.27
2022-10-19T10:42:37.412Z,59.81
2022-10-19T10:45:13.986Z,57.66
2022-10-19T10:47:46.801Z,59.24
2022-10-19T10:50:20.372Z,56.98
2022-10-19T10:53:05.515Z,56.06
2022-10-19T10:55:36.072Z,57.98
2022-10-19T10:58:23.388Z,58.98
2022-10-19T11:00:54.638Z,57.11
2022-10-19T11:03:33.229Z,56.06
2022-10-19T11:06:03.712Z,53.57
2022-10-19T11:08:49.838Z,52.55
2022-10-19T11:11:35.026Z,52.32
2022-10-19T11:14:28.366Z,53.40
2022-10-19T11:17:01.926Z,54.44
2022-10-19T11:19:46.282Z,56.45
2022-10-19T11:22:45.995Z,56.29
2022-10-19T11:25:31.325Z,55.52
2022-10-19T11:28:37.783Z,58.11
2022-10-19T11:31:11.365Z,57.64
2022-10-19T11:33:50.840Z,58.25
2022-10-19T11:36:29.961Z,59.77
2022-10-19T11:39:03.672Z,51.85
2022-10-19T11:41:58.109Z,50.86
2022-10-19T11:44:52.579Z,50.14
2022-10-19T11:47:43.078Z,50.30
2022-10-19T11:50:31.117Z,46.67
2022-10-19T11:53:03.486Z,50.77
2022-10-19T11:55:40.212Z,51.31
2022-10-19T11:58:19.615Z,52.49
2022-10-19T12:01:11.098Z,52.38
2022-10-19T12:04:02.654Z,54.43
2022-10-19T12:06:51.096Z,55.50
2022-10-19T12:09:29.803Z,57.48
2022-10-19T12:12:30.814Z,56.42
2022-10-19T12:15:13.815Z,58.15
2022-10-19T12:17:47.608Z,57.78
2022-10-19T12:20:26.277Z,57.57
2022-10-19T12:22:59.427Z,57.09
2022-10-19T12:25:30.027Z,57.33
2022-10-19T12:28:01.991Z,56.06
2022-10-19T12:30:32.615Z,56.41
2022-10-19T12:33:34.575Z,58.96
2022-10-19T12:36:41.190Z,56.88
2022-10-19T12:39:20.575Z,56.96
2022-10-19T12:42:12.146Z,57.97
2022-10-19T12:44:53.786Z,55.24
2022-10-19T12:47:26.033Z,55.05
2022-10-19T12:49:57.587Z,55.85
2022-10-19T12:52:49.463Z,57.04
2022-10-19T12:55:30.737Z,57.41
2022-10-19T12:58:04.091Z,57.90
2022-10-19T13:00:37.337Z,59.16
2022-10-19T13:03:10.844Z,58.58
2022-10-19T13:05:41.420Z,59.49
2022-10-19T13:08:14.902Z,59.03
2022-10-19T13:10:50.038Z,60.06
2022-10-19T13:13:40.248Z,59.32
2022-10-19T13:16:30.495Z,59.75
2022-10-19T13:19:07.002Z,58.22
2022-10-19T13:22:02.735Z,58.75
2022-10-19T13:24:36.061Z,59.52
2022-10-19T13:27:21.796Z,59.31
2022-10-19T13:29:52.707Z,59.21
2022-10-19T13:32:44.335Z,60.64
2022-10-19T13:35:34.062Z,59.29
2022-10-19T13:38:19.384Z,57.38
2022-10-19T13:40:53.436Z,60.33
2022-10-19T13:43:31.026Z,59.47
2022-10-19T13:46:10.373Z,59.96
2022-10-19T13:48:58.928Z,58.93
2022-10-19T13:51:47.413Z,59.88
2022-10-19T13:54:35.795Z,60.40
2022-10-19T13:57:09.284Z,59.21
2022-10-19T13:59:42.770Z,60.90
2022-10-19T14:02:23.640Z,60.51
2022-10-19T14:05:03.121Z,60.52
2022-10-19T14:08:04.017Z,61.69
2022-10-19T14:10:56.196Z,60.77
2022-10-19T14:13:11.378Z,63.09
2022-10-19T14:15:45.252Z,62.18
2022-10-19T14:18:24.947Z,63.17
2022-10-19T14:21:01.046Z,63.90
2022-10-19T14:23:34.782Z,63.16
2022-10-19T14:26:08.478Z,63.13
2022-10-19T14:28:40.061Z,63.36
2022-10-19T14:31:13.737Z,63.98
2022-10-19T14:33:50.016Z,64.28
2022-10-19T14:36:23.746Z,63.38
2022-10-19T14:38:57.678Z,64.17
2022-10-19T14:41:31.205Z,62.92
2022-10-19T14:44:02.866Z,63.25
2022-10-19T14:46:34.820Z,63.43
2022-10-19T14:49:11.160Z,63.73
2022-10-19T14:51:44.558Z,63.48
2022-10-19T14:54:29.912Z,63.89
2022-10-19T14:57:05.803Z,64.16
2022-10-19T14:59:39.329Z,62.74
2022-10-19T15:02:21.867Z,63.84
2022-10-19T15:04:56.225Z,66.07
2022-10-19T15:07:41.264Z,65.32
2022-10-19T15:10:23.757Z,66.09
2022-10-19T15:13:00.117Z,66.08
2022-10-19T15:15:32.890Z,67.32
2022-10-19T15:18:06.630Z,65.95
2022-10-19T15:20:55.156Z,67.15
2022-10-19T15:23:44.832Z,66.84
2022-10-19T15:26:28.783Z,67.12
2022-10-19T15:29:13.426Z,68.27
2022-10-19T15:31:43.971Z,67.87
2022-10-19T15:34:31.298Z,69.55
2022-10-19T15:37:03.515Z,69.07
2022-10-19T15:39:41.024Z,68.10
2022-10-19T15:42:26.764Z,68.77
2022-10-19T15:44:57.281Z,69.49
2022-10-19T15:47:27.962Z,69.80
2022-10-19T15:50:00.961Z,70.00
2022-10-19T15:52:33.764Z,69.78
2022-10-19T15:55:04.488Z,70.33
2022-10-19T15:57:37.591Z,69.93
2022-10-19T16:00:13.522Z,72.33
2022-10-19T16:02:43.993Z,71.79
2022-10-19T16:05:14.425Z,72.10
2022-10-19T16:07:44.829Z,72.27
2022-10-19T16:10:20.680Z,71.81
2022-10-19T16:12:51.425Z,72.70
2022-10-19T16:15:25.292Z,72.98
2022-10-19T16:17:58.675Z,72.78
2022-10-19T16:20:31.291Z,72.83
2022-10-19T16:23:01.645Z,73.62
2022-10-19T16:25:31.984Z,73.78
2022-10-19T16:28:02.384Z,73.52
2022-10-19T16:30:32.766Z,74.47
2022-10-19T16:33:03.173Z,73.81
2022-10-19T16:35:33.642Z,73.99
2022-10-19T16:38:04.125Z,73.95
2022-10-19T16:40:34.439Z,74.49
2022-10-19T16:43:05.120Z,74.56
2022-10-19T16:45:35.784Z,75.10
2022-10-19T16:48:06.516Z,75.52
2022-10-19T16:50:36.942Z,75.88
2022-10-19T16:53:12.517Z,76.00
2022-10-19T16:55:42.816Z,76.75
2022-10-19T16:58:13.139Z,76.70
2022-10-19T17:00:43.436Z,77.48
2022-10-19T17:03:13.736Z,77.25
2022-10-19T17:05:44.043Z,77.11
2022-10-19T17:08:14.478Z,77.00
2022-10-19T17:10:45.236Z,77.05
2022-10-19T17:13:15.736Z,77.80
2022-10-19T17:15:46.189Z,77.24
2022-10-19T17:20:46.920Z,77.28
2022-10-19T17:23:17.329Z,77.28
2022-10-19T17:25:48.884Z,77.55
2022-10-19T17:28:20.999Z,77.32
2022-10-19T17:30:52.545Z,77.31
2022-10-19T17:33:22.962Z,77.53
2022-10-19T17:35:53.310Z,77.90
2022-10-19T17:38:23.639Z,78.07
2022-10-19T17:40:54.051Z,78.34
2022-10-19T17:43:24.467Z,78.22
2022-10-19T17:46:05.704Z,78.04
2022-10-19T17:48:37.576Z,78.42
2022-10-19T17:51:10.897Z,78.35
2022-10-19T17:53:41.317Z,78.91
2022-10-19T17:56:14.626Z,79.00
2022-10-19T17:58:45.191Z,78.74
2022-10-19T18:01:17.802Z,78.21
2022-10-19T18:03:49.258Z,78.03
2022-10-19T18:06:22.274Z,78.65
2022-10-19T18:08:54.778Z,77.47
2022-10-19T18:11:27.890Z,77.23
2022-10-19T18:14:02.559Z,78.37
2022-10-19T18:16:35.736Z,78.67
2022-10-19T18:19:06.750Z,78.44
2022-10-19T18:21:39.866Z,77.72
2022-10-19T18:24:15.274Z,77.37
2022-10-19T18:26:45.473Z,76.93
2022-10-19T18:29:21.552Z,76.98
2022-10-19T18:31:52.541Z,77.32
2022-10-19T18:34:30.962Z,77.31
2022-10-19T18:37:01.346Z,77.96
2022-10-19T18:39:31.749Z,78.43
2022-10-19T18:42:02.243Z,78.42
2022-10-19T18:44:33.772Z,78.29
2022-10-19T18:47:04.361Z,78.19
2022-10-19T18:49:34.846Z,78.38
2022-10-19T18:52:05.431Z,78.79
2022-10-19T18:54:35.882Z,79.36
2022-10-19T18:57:06.427Z,79.21
2022-10-19T18:59:36.902Z,79.26
2022-10-19T19:02:13.740Z,79.68
2022-10-19T19:04:40.088Z,79.88
2022-10-19T19:07:10.575Z,79.78
2022-10-19T19:09:42.081Z,80.09
2022-10-19T19:12:12.445Z,79.96
2022-10-19T19:14:43.892Z,79.78
2022-10-19T19:17:14.570Z,79.43
2022-10-19T19:19:45.016Z,79.67
2022-10-19T19:22:16.199Z,80.45
2022-10-19T19:24:48.341Z,80.00
2022-10-19T19:27:22.019Z,77.92
2022-10-19T19:29:58.510Z,78.53
2022-10-19T19:32:28.998Z,77.97
2022-10-19T19:34:59.785Z,76.88
2022-10-19T19:37:30.993Z,77.08
2022-10-19T19:40:01.742Z,76.90
2022-10-19T19:42:32.317Z,76.59
2022-10-19T19:45:03.379Z,76.15
2022-10-19T19:47:34.385Z,76.17
2022-10-19T19:50:05.229Z,76.17
2022-10-19T19:52:40.323Z,76.80
2022-10-19T19:55:12.409Z,76.80
2022-10-19T19:57:43.555Z,76.00
2022-10-19T20:00:16.330Z,76.26
2022-10-19T20:02:48.381Z,75.59
2022-10-19T20:05:20.029Z,75.90
2022-10-19T20:07:51.612Z,75.74
2022-10-19T20:10:22.565Z,75.33
2022-10-19T20:12:53.092Z,75.58
2022-10-19T20:15:23.520Z,76.12
2022-10-19T20:17:53.997Z,75.79
2022-10-19T20:20:27.334Z,76.13
2022-10-19T20:23:00.343Z,75.77
2022-10-19T20:25:36.933Z,75.28
2022-10-19T20:28:07.567Z,75.25
2022-10-19T20:30:38.025Z,75.30
2022-10-19T20:33:08.466Z,75.40
2022-10-19T20:35:38.838Z,75.08
2022-10-19T20:38:09.259Z,75.95
2022-10-19T20:40:40.847Z,76.73
2022-10-19T20:43:11.473Z,75.54
2022-10-19T20:45:41.844Z,76.69
2022-10-19T20:48:12.225Z,76.57
2022-10-19T20:50:42.777Z,75.57
2022-10-19T20:53:13.446Z,75.86
2022-10-19T20:55:44.041Z,77.30
2022-10-19T20:58:14.436Z,77.25
2022-10-19T21:00:44.898Z,76.15
2022-10-19T21:03:15.298Z,76.35
2022-10-19T21:05:45.616Z,75.51
2022-10-19T21:08:16.814Z,74.90
2022-10-19T21:10:47.285Z,75.48
2022-10-19T21:13:17.712Z,74.93
2022-10-19T21:15:48.192Z,75.37
2022-10-19T21:18:18.637Z,75.57
2022-10-19T21:20:49.052Z,75.91
2022-10-19T21:23:19.485Z,75.88
2022-10-19T21:25:58.126Z,74.57
2022-10-19T21:28:28.629Z,75.21
2022-10-19T21:31:07.357Z,74.66
2022-10-19T21:33:37.951Z,74.60
2022-10-19T21:36:09.380Z,74.77
2022-10-19T21:38:40.199Z,74.87
2022-10-19T21:41:13.638Z,74.61
2022-10-19T21:43:44.494Z,75.07
2022-10-19T21:46:18.248Z,76.03
2022-10-19T21:48:49.074Z,76.15
2022-10-19T21:51:25.139Z,74.79
2022-10-19T21:53:55.598Z,75.74
2022-10-19T21:56:26.541Z,75.51
2022-10-19T21:58:57.185Z,75.63
2022-10-19T22:01:29.568Z,75.65
2022-10-19T22:04:02.766Z,76.26
2022-10-19T22:06:35.921Z,75.99
2022-10-19T22:09:08.618Z,76.51
2022-10-19T22:11:38.974Z,75.97
2022-10-19T22:14:10.921Z,75.36
2022-10-19T22:16:42.101Z,75.13
2022-10-19T22:19:13.849Z,75.58
2022-10-19T22:21:44.331Z,75.11
2022-10-19T22:24:15.890Z,76.73
2022-10-19T22:26:50.643Z,75.07
2022-10-19T22:29:20.995Z,75.57
2022-10-19T22:31:51.561Z,75.72
2022-10-19T22:34:21.923Z,75.31
2022-10-19T22:36:52.232Z,75.83
2022-10-19T22:39:25.735Z,75.05
2022-10-19T22:41:54.795Z,75.33
2022-10-19T22:44:25.139Z,76.13
2022-10-19T22:46:55.977Z,75.25
2022-10-19T22:49:26.457Z,75.15
2022-10-19T22:51:56.849Z,75.07
2022-10-19T22:54:27.309Z,74.96
2022-10-19T22:56:57.739Z,74.32
2022-10-19T22:59:28.067Z,74.51
2022-10-19T23:01:58.498Z,75.00
2022-10-19T23:04:28.948Z,75.39
2022-10-19T23:06:59.497Z,74.12
2022-10-19T23:09:29.907Z,74.39
2022-10-19T23:12:00.407Z,74.62
2022-10-19T23:14:30.771Z,75.10
2022-10-19T23:17:01.148Z,75.32
2022-10-19T23:19:31.529Z,75.49
2022-10-19T23:22:01.898Z,75.13
2022-10-19T23:24:32.431Z,75.15
2022-10-19T23:27:02.732Z,75.12
2022-10-19T23:29:33.167Z,74.40
2022-10-19T23:32:03.535Z,74.54
2022-10-19T23:37:04.195Z,75.20
2022-10-19T23:39:34.602Z,75.99
2022-10-19T23:42:04.982Z,76.07
2022-10-19T23:44:35.289Z,76.95
2022-10-19T23:47:05.991Z,77.26
2022-10-19T23:49:36.387Z,76.57
2022-10-19T23:52:06.906Z,75.68
2022-10-19T23:54:37.375Z,75.81
2022-10-19T23:57:07.838Z,75.57
2022-10-19T23:59:38.230Z,75.76
